Time;durP1;ratioP1;P1;durP2;ratioP2;P2;SDS_P1;SDS_P2;PMS_P1;PMS_P2;Temp;Humidity;BMP_temperature;BMP_pressure;BME280_temperature;BME280_humidity;BME280_pressure;Samples;Min_cycle;Max_cycle;Signal;HPM_P1;HPM_P2
2023/03/12 00:01:28;;;;;;;17.60;9.70;;;;;;;;;;5081412;27;20244;-65
2023/03/12 00:03:56;;;;;;;8.50;4.80;;;;;;;;;;5081277;27;20296;-65
2023/03/12 00:06:24;;;;;;;13.33;8.23;;;;;;;;;;5081738;27;20277;-65
2023/03/12 00:08:52;;;;;;;8.10;4.23;;;;;;;;;;5087803;27;20302;-63
2023/03/12 00:11:22;;;;;;;7.13;4.40;;;;;;;;;;5086468;27;20202;-65
2023/03/12 00:13:53;;;;;;;10.53;4.63;;;;;;;;;;5083820;27;20226;-64
2023/03/12 00:16:21;;;;;;;9.53;4.20;;;;;;;;;;5089996;27;20231;-64
2023/03/12 00:18:50;;;;;;;8.03;4.50;;;;;;;;;;5101218;27;20209;-64
2023/03/12 00:21:17;;;;;;;7.90;3.47;;;;;;;;;;5086225;27;20238;-65
2023/03/12 00:23:46;;;;;;;6.97;3.20;;;;;;;;;;5088441;27;20228;-65
2023/03/12 00:26:14;;;;;;;5.93;3.60;;;;;;;;;;5089150;27;20242;-65
2023/03/12 00:28:42;;;;;;;7.00;3.27;;;;;;;;;;5088478;27;20217;-65
2023/03/12 00:31:14;;;;;;;6.37;3.30;;;;;;;;;;5084244;27;20680;-65
2023/03/12 00:33:41;;;;;;;3.93;3.30;;;;;;;;;;5096102;27;20238;-63
2023/03/12 00:36:09;;;;;;;4.37;3.67;;;;;;;;;;5081001;27;20329;-64
2023/03/12 00:38:36;;;;;;;5.57;4.03;;;;;;;;;;5084420;27;20210;-65
2023/03/12 00:41:04;;;;;;;11.27;6.80;;;;;;;;;;5084775;27;20613;-64
2023/03/12 00:43:35;;;;;;;13.10;9.03;;;;;;;;;;5110075;27;20719;-63
2023/03/12 00:46:03;;;;;;;10.23;6.40;;;;;;;;;;5088351;27;20639;-64
2023/03/12 00:48:30;;;;;;;6.43;4.57;;;;;;;;;;5091011;27;20214;-64
2023/03/12 00:50:58;;;;;;;7.77;4.63;;;;;;;;;;5093672;27;20210;-63
2023/03/12 00:53:25;;;;;;;4.60;3.10;;;;;;;;;;5088341;27;21285;-63
2023/03/12 00:55:53;;;;;;;5.17;3.23;;;;;;;;;;5103119;27;20211;-64
2023/03/12 00:58:21;;;;;;;2.83;2.60;;;;;;;;;;5090377;27;20248;-64
2023/03/12 01:00:48;;;;;;;2.87;2.67;;;;;;;;;;5105622;27;20291;-64
2023/03/12 01:03:16;;;;;;;2.57;2.37;;;;;;;;;;5103476;27;20228;-63
2023/03/12 01:05:44;;;;;;;6.00;3.00;;;;;;;;;;5097760;27;20239;-63
2023/03/12 01:08:11;;;;;;;5.07;2.80;;;;;;;;;;5091725;27;20794;-64
2023/03/12 01:10:42;;;;;;;3.33;2.70;;;;;;;;;;5092910;27;20792;-65
2023/03/12 01:13:09;;;;;;;4.87;2.70;;;;;;;;;;5086389;27;20336;-63
2023/03/12 01:15:37;;;;;;;3.97;2.73;;;;;;;;;;5101897;27;20944;-63
2023/03/12 01:18:04;;;;;;;5.30;2.60;;;;;;;;;;5088131;27;20371;-64
2023/03/12 01:20:32;;;;;;;6.30;2.80;;;;;;;;;;5081367;27;20232;-64
2023/03/12 01:22:59;;;;;;;6.73;3.00;;;;;;;;;;5087143;27;20315;-64
2023/03/12 01:25:26;;;;;;;2.63;2.43;;;;;;;;;;5080968;27;20259;-63
2023/03/12 01:27:56;;;;;;;3.50;2.50;;;;;;;;;;5095524;27;30744;-65
2023/03/12 01:30:24;;;;;;;3.93;2.80;;;;;;;;;;5113660;27;20574;-64
2023/03/12 01:32:52;;;;;;;6.57;2.77;;;;;;;;;;5099683;27;20288;-65
2023/03/12 01:35:19;;;;;;;4.30;3.37;;;;;;;;;;5115179;27;20827;-65
2023/03/12 01:37:46;;;;;;;5.60;3.23;;;;;;;;;;5123918;27;20665;-65
2023/03/12 01:40:16;;;;;;;5.43;2.77;;;;;;;;;;5105402;27;20244;-66
2023/03/12 01:42:43;;;;;;;4.47;2.93;;;;;;;;;;5087747;27;20242;-64
2023/03/12 01:45:31;;;;;;;3.63;2.50;;;;;;;;;;5079540;27;20289;-65
2023/03/12 01:47:58;;;;;;;3.10;2.80;;;;;;;;;;5069208;27;20215;-64
2023/03/12 01:50:25;;;;;;;5.27;3.10;;;;;;;;;;5073646;27;20862;-65
2023/03/12 01:52:53;;;;;;;4.70;3.13;;;;;;;;;;5082555;27;20246;-64
2023/03/12 01:55:20;;;;;;;4.67;3.13;;;;;;;;;;5072579;27;20210;-64
2023/03/12 01:57:50;;;;;;;3.87;3.43;;;;;;;;;;5072961;27;20214;-66
2023/03/12 02:00:21;;;;;;;4.63;3.03;;;;;;;;;;5092574;27;20295;-66
2023/03/12 02:02:49;;;;;;;3.90;3.20;;;;;;;;;;5081903;27;20262;-66
2023/03/12 02:05:19;;;;;;;3.30;2.83;;;;;;;;;;5075956;27;20425;-63
2023/03/12 02:07:46;;;;;;;3.13;2.83;;;;;;;;;;5077221;27;20322;-64
2023/03/12 02:10:15;;;;;;;3.20;2.90;;;;;;;;;;5079873;27;20607;-65
2023/03/12 02:12:42;;;;;;;4.27;3.00;;;;;;;;;;5099935;27;20236;-65
2023/03/12 02:15:10;;;;;;;5.60;2.97;;;;;;;;;;5089907;27;20287;-64
2023/03/12 02:17:39;;;;;;;4.67;3.23;;;;;;;;;;5077155;27;20337;-63
2023/03/12 02:20:15;;;;;;;3.80;3.20;;;;;;;;;;5097893;27;20243;-66
2023/03/12 02:22:46;;;;;;;4.87;3.07;;;;;;;;;;5095783;27;20233;-64
2023/03/12 02:25:17;;;;;;;5.40;3.40;;;;;;;;;;5083145;27;20204;-65
2023/03/12 02:27:44;;;;;;;4.10;3.33;;;;;;;;;;5080731;27;20222;-63
2023/03/12 02:30:14;;;;;;;5.47;3.50;;;;;;;;;;5083840;27;20252;-63
2023/03/12 02:32:43;;;;;;;4.43;3.13;;;;;;;;;;5075035;27;20235;-65
2023/03/12 02:35:11;;;;;;;4.80;3.13;;;;;;;;;;5088979;27;20204;-64
2023/03/12 02:37:46;;;;;;;5.00;3.17;;;;;;;;;;5072460;27;20238;-64
2023/03/12 02:40:35;;;;;;;5.23;3.10;;;;;;;;;;5093974;27;20199;-65
2023/03/12 02:43:04;;;;;;;4.97;3.10;;;;;;;;;;5094690;27;20246;-65
2023/03/12 02:45:33;;;;;;;6.57;3.20;;;;;;;;;;5075970;27;20353;-65
2023/03/12 02:48:01;;;;;;;7.00;3.67;;;;;;;;;;5097201;27;20939;-64
2023/03/12 02:50:28;;;;;;;4.33;3.40;;;;;;;;;;5079168;27;20298;-64
2023/03/12 02:52:56;;;;;;;6.77;3.83;;;;;;;;;;5073040;27;20636;-65
2023/03/12 02:55:23;;;;;;;4.47;4.03;;;;;;;;;;5072980;27;20203;-65
2023/03/12 02:57:50;;;;;;;7.00;3.40;;;;;;;;;;5082079;27;20233;-64
2023/03/12 03:00:18;;;;;;;4.30;3.27;;;;;;;;;;5096568;27;20232;-65
2023/03/12 03:02:45;;;;;;;8.27;3.60;;;;;;;;;;5093752;27;20324;-65
2023/03/12 03:05:14;;;;;;;4.27;3.50;;;;;;;;;;5088370;28;21414;-64
2023/03/12 03:07:42;;;;;;;5.10;3.20;;;;;;;;;;5090424;27;20195;-65
2023/03/12 03:10:10;;;;;;;4.47;3.57;;;;;;;;;;5079676;27;20214;-63
2023/03/12 03:12:37;;;;;;;5.93;3.63;;;;;;;;;;5074051;27;20234;-65
2023/03/12 03:15:05;;;;;;;4.17;3.40;;;;;;;;;;5078525;27;20688;-64
2023/03/12 03:17:32;;;;;;;4.00;3.30;;;;;;;;;;5073510;27;23344;-64
2023/03/12 03:20:00;;;;;;;6.30;3.20;;;;;;;;;;5067788;27;20298;-64
2023/03/12 03:22:28;;;;;;;8.33;3.50;;;;;;;;;;5086078;27;20676;-64
2023/03/12 03:24:55;;;;;;;5.70;2.93;;;;;;;;;;5079425;27;21150;-64
2023/03/12 03:27:22;;;;;;;4.30;3.03;;;;;;;;;;5074015;27;20221;-64
2023/03/12 03:29:50;;;;;;;3.77;3.27;;;;;;;;;;5083084;27;20494;-65
2023/03/12 03:32:17;;;;;;;3.43;3.13;;;;;;;;;;5081404;27;20233;-63
2023/03/12 03:34:45;;;;;;;2.60;2.40;;;;;;;;;;5070739;27;20204;-63
2023/03/12 03:37:13;;;;;;;4.30;3.00;;;;;;;;;;5092500;27;20228;-65
2023/03/12 03:39:40;;;;;;;3.07;2.63;;;;;;;;;;5082344;27;20207;-64
2023/03/12 03:42:07;;;;;;;3.83;2.90;;;;;;;;;;5083338;27;20896;-65
2023/03/12 03:44:35;;;;;;;3.27;2.80;;;;;;;;;;5079127;27;20223;-65
2023/03/12 03:47:02;;;;;;;4.37;3.20;;;;;;;;;;5072641;27;20489;-65
2023/03/12 03:49:29;;;;;;;6.07;3.27;;;;;;;;;;5073021;27;20324;-64
2023/03/12 03:51:57;;;;;;;8.93;3.63;;;;;;;;;;5079170;27;20211;-65
2023/03/12 03:54:24;;;;;;;6.37;3.53;;;;;;;;;;5083678;27;20231;-64
2023/03/12 03:56:52;;;;;;;4.53;3.23;;;;;;;;;;5099830;27;20334;-64
2023/03/12 03:59:19;;;;;;;4.43;3.20;;;;;;;;;;5080623;27;20207;-63
2023/03/12 04:01:46;;;;;;;7.10;3.30;;;;;;;;;;5072804;27;20817;-64
2023/03/12 04:04:14;;;;;;;3.40;2.87;;;;;;;;;;5080619;27;20369;-64
2023/03/12 04:06:41;;;;;;;6.87;4.40;;;;;;;;;;5080946;27;20216;-63
2023/03/12 04:09:10;;;;;;;5.60;4.03;;;;;;;;;;5089720;27;20211;-64
2023/03/12 04:11:37;;;;;;;14.33;6.93;;;;;;;;;;5086494;27;20735;-64
2023/03/12 04:14:06;;;;;;;26.43;12.97;;;;;;;;;;5080107;27;20684;-65
2023/03/12 04:16:33;;;;;;;11.27;6.67;;;;;;;;;;5081081;27;20313;-65
2023/03/12 04:19:01;;;;;;;7.63;4.90;;;;;;;;;;5073526;27;20334;-65
2023/03/12 04:21:28;;;;;;;10.37;5.83;;;;;;;;;;5085508;27;20203;-65
2023/03/12 04:23:55;;;;;;;5.93;3.63;;;;;;;;;;5079430;27;20321;-63
2023/03/12 04:26:23;;;;;;;7.83;4.40;;;;;;;;;;5078127;27;20214;-65
2023/03/12 04:28:50;;;;;;;5.87;3.67;;;;;;;;;;5106273;27;23156;-65
2023/03/12 04:31:17;;;;;;;9.50;5.90;;;;;;;;;;5082851;27;20261;-64
2023/03/12 04:33:45;;;;;;;19.07;8.80;;;;;;;;;;5074473;27;20239;-64
2023/03/12 04:36:13;;;;;;;10.40;6.97;;;;;;;;;;5090953;27;20208;-64
2023/03/12 04:38:40;;;;;;;10.77;5.77;;;;;;;;;;5076735;27;20280;-64
2023/03/12 04:41:10;;;;;;;6.07;4.63;;;;;;;;;;5075414;27;20208;-64
2023/03/12 04:43:37;;;;;;;6.10;4.17;;;;;;;;;;5083920;27;20355;-64
2023/03/12 04:46:05;;;;;;;6.30;3.90;;;;;;;;;;5077007;27;20657;-65
2023/03/12 04:48:32;;;;;;;6.13;3.97;;;;;;;;;;5077740;27;20220;-64
2023/03/12 04:51:00;;;;;;;7.67;4.30;;;;;;;;;;5079403;27;20299;-65
2023/03/12 04:53:28;;;;;;;5.63;4.07;;;;;;;;;;5074226;27;20257;-65
2023/03/12 04:55:55;;;;;;;5.23;4.17;;;;;;;;;;5077029;27;20216;-64
2023/03/12 04:58:23;;;;;;;4.87;3.70;;;;;;;;;;5087121;27;20303;-65
2023/03/12 05:00:51;;;;;;;7.77;4.87;;;;;;;;;;5114980;27;20234;-64
2023/03/12 05:03:18;;;;;;;4.57;4.10;;;;;;;;;;5092358;27;20328;-64
2023/03/12 05:05:45;;;;;;;7.23;4.90;;;;;;;;;;5099156;27;20226;-65
2023/03/12 05:08:13;;;;;;;8.03;5.73;;;;;;;;;;5077737;27;20362;-65
2023/03/12 05:10:44;;;;;;;10.93;6.57;;;;;;;;;;5080918;27;20207;-65
2023/03/12 05:13:16;;;;;;;11.37;6.87;;;;;;;;;;5076117;27;20231;-65
2023/03/12 05:15:43;;;;;;;17.13;9.97;;;;;;;;;;5081560;27;20262;-65
2023/03/12 05:18:11;;;;;;;17.30;10.87;;;;;;;;;;5077064;27;20231;-65
2023/03/12 05:20:38;;;;;;;19.80;11.87;;;;;;;;;;5078784;27;20235;-65
2023/03/12 05:23:05;;;;;;;21.53;12.53;;;;;;;;;;5085010;27;20799;-64
2023/03/12 05:25:40;;;;;;;28.03;16.00;;;;;;;;;;5083743;27;20582;-65
2023/03/12 05:28:07;;;;;;;27.73;15.50;;;;;;;;;;5085751;27;20214;-64
2023/03/12 05:30:35;;;;;;;34.77;17.03;;;;;;;;;;5092831;27;20691;-65
2023/03/12 05:33:02;;;;;;;36.07;18.67;;;;;;;;;;5089442;27;20267;-65
2023/03/12 05:35:29;;;;;;;37.43;19.77;;;;;;;;;;5102624;27;20207;-64
2023/03/12 05:37:57;;;;;;;49.50;21.87;;;;;;;;;;5105376;27;20214;-64
2023/03/12 05:40:24;;;;;;;43.07;20.70;;;;;;;;;;5096608;27;20199;-63
2023/03/12 05:42:52;;;;;;;44.37;21.13;;;;;;;;;;5082204;27;20237;-65
2023/03/12 05:45:20;;;;;;;47.27;22.57;;;;;;;;;;5083468;27;20212;-64
2023/03/12 05:47:47;;;;;;;46.10;21.27;;;;;;;;;;5090053;27;20286;-63
2023/03/12 05:50:15;;;;;;;49.83;21.60;;;;;;;;;;5082816;27;23257;-63
2023/03/12 05:52:42;;;;;;;46.53;21.80;;;;;;;;;;5073412;27;20247;-65
2023/03/12 05:55:10;;;;;;;48.57;23.13;;;;;;;;;;5076666;27;20207;-63
2023/03/12 05:57:38;;;;;;;49.60;22.13;;;;;;;;;;5079885;27;20215;-64
2023/03/12 06:00:05;;;;;;;52.70;22.33;;;;;;;;;;5078842;27;20298;-64
2023/03/12 06:02:33;;;;;;;51.60;22.37;;;;;;;;;;5081723;27;20220;-64
2023/03/12 06:05:01;;;;;;;58.20;22.67;;;;;;;;;;5082515;27;20405;-64
2023/03/12 06:07:28;;;;;;;65.83;23.07;;;;;;;;;;5084752;27;20283;-64
2023/03/12 06:09:58;;;;;;;70.00;22.97;;;;;;;;;;5088030;27;20223;-65
2023/03/12 06:12:26;;;;;;;60.13;22.10;;;;;;;;;;5083080;27;20909;-65
2023/03/12 06:14:53;;;;;;;59.83;21.50;;;;;;;;;;5106291;27;20284;-64
2023/03/12 06:17:20;;;;;;;56.67;22.93;;;;;;;;;;5088673;27;20210;-64
2023/03/12 06:19:51;;;;;;;62.33;22.37;;;;;;;;;;5092180;27;20228;-64
2023/03/12 06:22:19;;;;;;;51.87;22.87;;;;;;;;;;5088879;27;20268;-64
2023/03/12 06:24:46;;;;;;;48.63;21.60;;;;;;;;;;5094228;27;20203;-65
2023/03/12 06:27:14;;;;;;;51.50;22.57;;;;;;;;;;5088164;27;20212;-64
2023/03/12 06:29:41;;;;;;;44.00;21.10;;;;;;;;;;5085338;27;20224;-64
2023/03/12 06:32:09;;;;;;;44.80;20.60;;;;;;;;;;5084892;27;20757;-65
2023/03/12 06:34:38;;;;;;;38.20;18.90;;;;;;;;;;5084717;27;20220;-63
2023/03/12 06:37:05;;;;;;;36.97;19.30;;;;;;;;;;5083386;27;20287;-64
2023/03/12 06:39:33;;;;;;;37.40;18.67;;;;;;;;;;5083896;27;20199;-65
2023/03/12 06:42:00;;;;;;;34.63;18.43;;;;;;;;;;5098035;27;20200;-64
2023/03/12 06:44:28;;;;;;;31.50;18.30;;;;;;;;;;5086650;27;20327;-63
2023/03/12 06:46:55;;;;;;;31.97;18.00;;;;;;;;;;5083982;27;20227;-64
2023/03/12 06:49:23;;;;;;;30.97;16.50;;;;;;;;;;5084992;27;20306;-65
2023/03/12 06:51:50;;;;;;;32.03;18.10;;;;;;;;;;5087620;27;20257;-66
2023/03/12 06:54:18;;;;;;;30.43;16.93;;;;;;;;;;5098974;27;20281;-65
2023/03/12 06:56:45;;;;;;;28.33;15.60;;;;;;;;;;5079346;27;20291;-64
2023/03/12 06:59:12;;;;;;;29.63;16.57;;;;;;;;;;5098977;28;20199;-64
2023/03/12 07:01:40;;;;;;;26.17;15.00;;;;;;;;;;5100728;28;20812;-64
2023/03/12 07:04:08;;;;;;;24.80;14.50;;;;;;;;;;5097457;28;20227;-65
2023/03/12 07:06:35;;;;;;;24.20;13.80;;;;;;;;;;5094281;28;20903;-64
2023/03/12 07:09:03;;;;;;;20.60;12.70;;;;;;;;;;5087823;27;20244;-63
2023/03/12 07:11:31;;;;;;;19.97;12.23;;;;;;;;;;5099890;27;20211;-66
2023/03/12 07:13:58;;;;;;;21.27;12.33;;;;;;;;;;5075650;27;20297;-64
2023/03/12 07:16:25;;;;;;;24.60;14.13;;;;;;;;;;5082364;28;20295;-64
2023/03/12 07:18:53;;;;;;;22.43;13.07;;;;;;;;;;5101186;27;20603;-64
2023/03/12 07:21:22;;;;;;;25.33;14.13;;;;;;;;;;5084460;27;20204;-64
2023/03/12 07:23:50;;;;;;;26.47;14.83;;;;;;;;;;5083524;27;21132;-64
2023/03/12 07:26:18;;;;;;;27.43;14.37;;;;;;;;;;5086245;27;20216;-65
2023/03/12 07:28:45;;;;;;;25.67;14.83;;;;;;;;;;5080224;27;20629;-63
2023/03/12 07:31:13;;;;;;;24.70;14.23;;;;;;;;;;5092026;27;20345;-66
2023/03/12 07:33:40;;;;;;;27.03;15.07;;;;;;;;;;5096498;27;20590;-64
2023/03/12 07:36:08;;;;;;;27.03;15.17;;;;;;;;;;5094247;27;20199;-65
2023/03/12 07:38:36;;;;;;;30.33;15.70;;;;;;;;;;5076430;27;20572;-65
2023/03/12 07:41:04;;;;;;;27.10;16.00;;;;;;;;;;5079592;27;20256;-64
2023/03/12 07:43:31;;;;;;;28.17;15.57;;;;;;;;;;5074666;27;20657;-64
2023/03/12 07:45:59;;;;;;;29.17;16.27;;;;;;;;;;5095274;27;20339;-64
2023/03/12 07:48:26;;;;;;;26.97;15.70;;;;;;;;;;5082749;27;20739;-64
2023/03/12 07:50:54;;;;;;;28.17;15.57;;;;;;;;;;5083371;27;20226;-64
2023/03/12 07:53:21;;;;;;;28.10;15.73;;;;;;;;;;5080815;27;20223;-65
2023/03/12 07:55:48;;;;;;;29.23;15.17;;;;;;;;;;5115056;27;20676;-65
2023/03/12 07:58:16;;;;;;;26.83;15.83;;;;;;;;;;5108353;27;20599;-66
2023/03/12 08:00:44;;;;;;;26.73;15.87;;;;;;;;;;5115599;27;20207;-64
2023/03/12 08:03:12;;;;;;;25.03;14.57;;;;;;;;;;5095937;27;20281;-64
2023/03/12 08:05:40;;;;;;;23.40;13.40;;;;;;;;;;5100788;27;20586;-64
2023/03/12 08:08:08;;;;;;;22.07;13.70;;;;;;;;;;5093646;27;20803;-66
2023/03/12 08:10:36;;;;;;;22.63;13.63;;;;;;;;;;5094893;27;20212;-64
2023/03/12 08:13:03;;;;;;;23.03;13.17;;;;;;;;;;5097637;27;20291;-63
2023/03/12 08:15:32;;;;;;;21.20;14.63;;;;;;;;;;5085957;27;20235;-67
2023/03/12 08:18:00;;;;;;;21.70;13.60;;;;;;;;;;5089454;27;20199;-64
2023/03/12 08:20:27;;;;;;;19.20;12.03;;;;;;;;;;5090398;27;20686;-64
2023/03/12 08:22:56;;;;;;;18.63;12.87;;;;;;;;;;5092826;27;20237;-65
2023/03/12 08:25:23;;;;;;;18.70;11.10;;;;;;;;;;5093092;27;20256;-62
2023/03/12 08:27:51;;;;;;;18.27;11.47;;;;;;;;;;5105872;27;20204;-65
2023/03/12 08:30:18;;;;;;;15.60;11.23;;;;;;;;;;5096228;27;20276;-63
2023/03/12 08:32:46;;;;;;;15.57;10.47;;;;;;;;;;5099812;27;20288;-63
2023/03/12 08:35:13;;;;;;;13.53;10.13;;;;;;;;;;5092291;27;20219;-64
2023/03/12 08:37:41;;;;;;;11.07;7.77;;;;;;;;;;5082187;27;20223;-63
2023/03/12 08:40:14;;;;;;;12.37;8.17;;;;;;;;;;5087466;27;20224;-63
2023/03/12 08:42:42;;;;;;;11.77;8.90;;;;;;;;;;5100881;27;20772;-64
2023/03/12 08:45:11;;;;;;;12.13;8.33;;;;;;;;;;5072862;27;20224;-63
2023/03/12 08:47:40;;;;;;;11.20;8.27;;;;;;;;;;5076638;27;20204;-62
2023/03/12 08:50:08;;;;;;;11.77;8.17;;;;;;;;;;5089308;27;20211;-64
2023/03/12 08:52:35;;;;;;;10.23;7.83;;;;;;;;;;5075040;27;20428;-64
2023/03/12 08:55:04;;;;;;;10.83;8.03;;;;;;;;;;5077071;27;20228;-63
2023/03/12 08:57:32;;;;;;;9.73;7.23;;;;;;;;;;5073111;27;20211;-66
2023/03/12 08:59:59;;;;;;;9.50;6.73;;;;;;;;;;5080482;27;20583;-64
2023/03/12 09:02:27;;;;;;;9.50;7.07;;;;;;;;;;5088467;27;22489;-64
2023/03/12 09:04:54;;;;;;;10.63;8.67;;;;;;;;;;5114576;27;20212;-63
2023/03/12 09:07:22;;;;;;;8.63;7.10;;;;;;;;;;5089493;27;20241;-63
2023/03/12 09:09:50;;;;;;;8.03;5.90;;;;;;;;;;5091456;27;20294;-64
2023/03/12 09:12:17;;;;;;;9.13;5.97;;;;;;;;;;5085904;27;20707;-63
2023/03/12 09:14:45;;;;;;;8.03;5.50;;;;;;;;;;5079932;27;20236;-63
2023/03/12 09:17:30;;;;;;;6.40;5.30;;;;;;;;;;5100695;27;21080;-63
2023/03/12 09:19:58;;;;;;;10.23;6.33;;;;;;;;;;5095550;27;20200;-64
2023/03/12 09:22:26;;;;;;;7.37;6.13;;;;;;;;;;5101731;27;20227;-63
2023/03/12 09:24:54;;;;;;;6.17;5.50;;;;;;;;;;5082164;27;20723;-64
2023/03/12 09:27:22;;;;;;;10.37;6.60;;;;;;;;;;5085108;27;20739;-64
2023/03/12 09:29:50;;;;;;;8.17;6.90;;;;;;;;;;5098335;27;20219;-64
2023/03/12 09:32:33;;;;;;;8.60;5.43;;;;;;;;;;5098650;27;20719;-64
2023/03/12 09:35:00;;;;;;;10.33;6.20;;;;;;;;;;5100491;27;20224;-64
2023/03/12 09:37:28;;;;;;;7.87;5.17;;;;;;;;;;5097711;27;20670;-65
2023/03/12 09:39:56;;;;;;;7.47;5.63;;;;;;;;;;5116689;27;20195;-64
2023/03/12 09:42:25;;;;;;;8.83;6.37;;;;;;;;;;5110018;27;20214;-64
2023/03/12 09:44:55;;;;;;;7.20;5.50;;;;;;;;;;5084650;27;20790;-63
2023/03/12 09:47:23;;;;;;;10.87;6.77;;;;;;;;;;5103923;27;20283;-63
2023/03/12 09:49:55;;;;;;;11.63;8.43;;;;;;;;;;5108999;27;20205;-64
2023/03/12 09:52:32;;;;;;;7.97;5.80;;;;;;;;;;5087967;27;20709;-64
2023/03/12 09:55:13;;;;;;;11.53;7.10;;;;;;;;;;5100153;27;22098;-64
2023/03/12 09:57:42;;;;;;;11.47;6.97;;;;;;;;;;5104077;27;21524;-64
2023/03/12 10:00:14;;;;;;;6.67;4.90;;;;;;;;;;5088711;27;20204;-64
2023/03/12 10:03:00;;;;;;;17.97;10.57;;;;;;;;;;5085420;27;20273;-64
2023/03/12 10:05:38;;;;;;;58.00;30.27;;;;;;;;;;5095759;27;20211;-64
2023/03/12 10:08:11;;;;;;;30.80;17.40;;;;;;;;;;5090454;27;22064;-64
2023/03/12 10:10:54;;;;;;;20.93;12.90;;;;;;;;;;5103441;27;20614;-64
2023/03/12 10:13:21;;;;;;;8.33;4.50;;;;;;;;;;5109694;27;20231;-64
2023/03/12 10:15:48;;;;;;;6.90;4.63;;;;;;;;;;5090102;27;20263;-64
2023/03/12 10:18:38;;;;;;;3.70;3.30;;;;;;;;;;5089946;27;20200;-64
2023/03/12 10:21:24;;;;;;;9.37;4.47;;;;;;;;;;5105413;27;20211;-64
2023/03/12 10:23:58;;;;;;;7.20;4.23;;;;;;;;;;5108368;27;20778;-64
2023/03/12 10:26:36;;;;;;;3.90;3.20;;;;;;;;;;5114583;27;20210;-64
2023/03/12 10:29:11;;;;;;;6.90;3.00;;;;;;;;;;5099203;27;20223;-64
2023/03/12 10:32:00;;;;;;;4.10;2.40;;;;;;;;;;5098755;27;20335;-64
2023/03/12 10:34:48;;;;;;;3.97;1.60;;;;;;;;;;5097772;27;20692;-64
2023/03/12 10:37:15;;;;;;;3.27;2.00;;;;;;;;;;5107197;27;20227;-64
2023/03/12 10:39:43;;;;;;;3.83;1.87;;;;;;;;;;5091196;27;20208;-65
2023/03/12 10:42:18;;;;;;;6.30;1.67;;;;;;;;;;5087012;27;20253;-64
2023/03/12 10:44:50;;;;;;;2.97;1.60;;;;;;;;;;5089240;27;20256;-66
2023/03/12 10:47:18;;;;;;;5.00;1.80;;;;;;;;;;5090905;27;21218;-64
2023/03/12 10:49:49;;;;;;;4.60;1.90;;;;;;;;;;5091049;27;20215;-63
2023/03/12 10:52:21;;;;;;;5.00;1.80;;;;;;;;;;5090345;27;20211;-64
2023/03/12 10:54:50;;;;;;;4.17;2.27;;;;;;;;;;5093559;27;20224;-64
2023/03/12 10:57:18;;;;;;;7.30;2.90;;;;;;;;;;5089354;27;20199;-66
2023/03/12 10:59:46;;;;;;;7.83;4.43;;;;;;;;;;5089236;27;20277;-64
2023/03/12 11:02:34;;;;;;;10.27;6.47;;;;;;;;;;5089133;27;20741;-65
2023/03/12 11:05:03;;;;;;;13.43;9.97;;;;;;;;;;5086677;27;20238;-65
2023/03/12 11:07:32;;;;;;;6.57;2.93;;;;;;;;;;5083161;27;20332;-64
2023/03/12 11:10:06;;;;;;;7.07;2.40;;;;;;;;;;5093668;27;20223;-65
2023/03/12 11:12:35;;;;;;;3.70;1.70;;;;;;;;;;5096283;27;20231;-63
2023/03/12 11:15:21;;;;;;;6.00;2.07;;;;;;;;;;5104388;27;21135;-63
2023/03/12 11:17:48;;;;;;;4.10;2.23;;;;;;;;;;5080083;27;20210;-64
2023/03/12 11:20:33;;;;;;;7.90;1.90;;;;;;;;;;5096577;28;20291;-64
2023/03/12 11:23:12;;;;;;;5.87;1.80;;;;;;;;;;5101346;27;20299;-64
2023/03/12 11:25:40;;;;;;;7.63;3.17;;;;;;;;;;5087862;27;20239;-64
2023/03/12 11:28:12;;;;;;;10.90;7.67;;;;;;;;;;5084889;28;20317;-64
2023/03/12 11:30:40;;;;;;;10.17;5.40;;;;;;;;;;5071383;27;20676;-64
2023/03/12 11:33:09;;;;;;;10.07;5.07;;;;;;;;;;5080453;27;20231;-64
2023/03/12 11:35:39;;;;;;;4.63;2.20;;;;;;;;;;5081806;27;20351;-64
2023/03/12 11:38:17;;;;;;;5.07;2.50;;;;;;;;;;5104336;27;20661;-63
2023/03/12 11:40:50;;;;;;;3.90;2.00;;;;;;;;;;5084206;27;20329;-64
2023/03/12 11:43:30;;;;;;;3.40;1.77;;;;;;;;;;5076048;27;20251;-63
2023/03/12 11:46:12;;;;;;;11.60;4.43;;;;;;;;;;5094075;27;20216;-63
2023/03/12 11:48:40;;;;;;;3.77;2.20;;;;;;;;;;5087258;27;20208;-63
2023/03/12 11:51:07;;;;;;;5.70;3.37;;;;;;;;;;5090524;27;21520;-64
2023/03/12 11:53:53;;;;;;;8.00;4.00;;;;;;;;;;5095745;27;20223;-64
2023/03/12 11:56:34;;;;;;;8.73;5.47;;;;;;;;;;5101416;27;20218;-64
2023/03/12 11:59:21;;;;;;;4.70;1.90;;;;;;;;;;5087528;27;20203;-64
2023/03/12 12:01:57;;;;;;;7.07;2.20;;;;;;;;;;5100654;27;20219;-63
2023/03/12 12:04:30;;;;;;;8.80;5.60;;;;;;;;;;5096470;27;20219;-63
2023/03/12 12:07:01;;;;;;;6.80;3.03;;;;;;;;;;5098203;27;20290;-63
2023/03/12 12:09:49;;;;;;;3.97;2.20;;;;;;;;;;5087649;27;20200;-63
2023/03/12 12:12:37;;;;;;;6.50;1.90;;;;;;;;;;5087989;27;20679;-61
2023/03/12 12:15:08;;;;;;;5.73;2.13;;;;;;;;;;5086606;27;20214;-63
2023/03/12 12:17:55;;;;;;;4.73;1.90;;;;;;;;;;5107445;27;20231;-63
2023/03/12 12:20:38;;;;;;;3.57;1.70;;;;;;;;;;5090492;27;20222;-64
2023/03/12 12:23:12;;;;;;;4.23;1.70;;;;;;;;;;5081229;27;20232;-64
2023/03/12 12:26:04;;;;;;;4.37;1.63;;;;;;;;;;5098187;27;21036;-63
2023/03/12 12:28:52;;;;;;;4.50;1.57;;;;;;;;;;5084436;27;20256;-64
2023/03/12 12:31:20;;;;;;;14.60;7.50;;;;;;;;;;5079760;27;20212;-62
2023/03/12 12:34:00;;;;;;;5.60;2.73;;;;;;;;;;5068624;27;20314;-64
2023/03/12 12:36:30;;;;;;;6.87;3.30;;;;;;;;;;5086388;27;20223;-63
2023/03/12 12:39:00;;;;;;;6.63;4.30;;;;;;;;;;5108043;27;20948;-63
2023/03/12 12:41:31;;;;;;;22.07;11.80;;;;;;;;;;5108103;27;20307;-61
2023/03/12 12:44:00;;;;;;;22.93;13.40;;;;;;;;;;5110830;27;20262;-64
2023/03/12 12:46:32;;;;;;;11.07;5.80;;;;;;;;;;5081179;27;20216;-62
2023/03/12 12:49:02;;;;;;;4.50;2.27;;;;;;;;;;5082543;27;20321;-62
2023/03/12 12:51:32;;;;;;;7.30;3.37;;;;;;;;;;5108628;27;20283;-63
2023/03/12 12:54:06;;;;;;;17.50;8.37;;;;;;;;;;5085880;27;20259;-63
2023/03/12 12:56:41;;;;;;;8.40;4.40;;;;;;;;;;5075696;27;20319;-63
2023/03/12 12:59:32;;;;;;;29.07;14.77;;;;;;;;;;5090989;27;20995;-64
2023/03/12 13:02:01;;;;;;;7.43;2.43;;;;;;;;;;5087161;27;20657;-63
2023/03/12 13:04:32;;;;;;;7.23;3.47;;;;;;;;;;5106025;27;20231;-64
2023/03/12 13:07:11;;;;;;;3.40;2.10;;;;;;;;;;5076060;27;20228;-64
2023/03/12 13:09:39;;;;;;;5.80;2.70;;;;;;;;;;5079233;27;20905;-63
2023/03/12 13:12:27;;;;;;;3.13;2.20;;;;;;;;;;5083980;27;20957;-63
2023/03/12 13:14:55;;;;;;;7.03;3.23;;;;;;;;;;5062290;27;20294;-63
2023/03/12 13:17:24;;;;;;;4.57;2.30;;;;;;;;;;5083139;27;20616;-62
2023/03/12 13:19:53;;;;;;;5.27;2.90;;;;;;;;;;5071816;27;20207;-63
2023/03/12 13:22:30;;;;;;;3.97;2.33;;;;;;;;;;5081537;27;20207;-63
2023/03/12 13:25:09;;;;;;;3.27;2.37;;;;;;;;;;5081373;27;20291;-63
2023/03/12 13:27:38;;;;;;;4.47;1.50;;;;;;;;;;5082066;27;20208;-62
2023/03/12 13:30:26;;;;;;;4.13;1.87;;;;;;;;;;5083708;27;20558;-63
2023/03/12 13:32:57;;;;;;;3.07;1.50;;;;;;;;;;5070303;27;20261;-62
2023/03/12 13:35:25;;;;;;;4.50;1.63;;;;;;;;;;5086717;27;20235;-62
2023/03/12 13:37:52;;;;;;;4.37;1.77;;;;;;;;;;5094152;27;20203;-63
2023/03/12 13:40:29;;;;;;;1.50;1.20;;;;;;;;;;5080053;27;20291;-63
2023/03/12 13:43:10;;;;;;;3.13;1.40;;;;;;;;;;5074715;27;20328;-62
2023/03/12 13:45:54;;;;;;;2.67;1.50;;;;;;;;;;5076744;27;20263;-63
2023/03/12 13:48:22;;;;;;;4.67;2.60;;;;;;;;;;5093608;27;20206;-63
2023/03/12 13:51:01;;;;;;;1.83;1.20;;;;;;;;;;5093143;27;20313;-62
2023/03/12 13:53:38;;;;;;;1.77;1.20;;;;;;;;;;5083893;27;20315;-63
2023/03/12 13:56:10;;;;;;;2.10;1.00;;;;;;;;;;5097073;27;20231;-63
2023/03/12 13:58:47;;;;;;;4.40;2.00;;;;;;;;;;5104263;27;20705;-63
2023/03/12 14:01:18;;;;;;;2.73;2.10;;;;;;;;;;5098785;27;20203;-62
2023/03/12 14:03:48;;;;;;;1.33;1.33;;;;;;;;;;5086149;27;20239;-63
2023/03/12 14:06:24;;;;;;;3.30;1.60;;;;;;;;;;5099491;27;20263;-63
2023/03/12 14:08:58;;;;;;;2.37;1.17;;;;;;;;;;5075528;27;20216;-63
2023/03/12 14:11:39;;;;;;;4.47;1.70;;;;;;;;;;5079259;27;20685;-63
2023/03/12 14:14:24;;;;;;;3.07;1.33;;;;;;;;;;5086434;27;20619;-63
2023/03/12 14:16:52;;;;;;;2.57;1.30;;;;;;;;;;5073804;27;20838;-64
2023/03/12 14:19:24;;;;;;;1.90;1.40;;;;;;;;;;5091757;27;20292;-63
2023/03/12 14:21:52;;;;;;;2.27;1.40;;;;;;;;;;5099931;27;20256;-63
2023/03/12 14:24:20;;;;;;;1.83;1.20;;;;;;;;;;5087848;27;20242;-63
2023/03/12 14:26:47;;;;;;;2.63;1.50;;;;;;;;;;5113024;27;20233;-65
2023/03/12 14:29:21;;;;;;;3.40;1.50;;;;;;;;;;5095933;27;20216;-65
2023/03/12 14:31:49;;;;;;;2.80;1.30;;;;;;;;;;5098898;27;20203;-64
2023/03/12 14:34:26;;;;;;;3.57;1.50;;;;;;;;;;5088867;27;20243;-65
2023/03/12 14:37:00;;;;;;;3.10;1.50;;;;;;;;;;5094665;27;20303;-64
2023/03/12 14:39:30;;;;;;;3.53;1.50;;;;;;;;;;5094191;27;20200;-65
2023/03/12 14:42:03;;;;;;;3.00;1.77;;;;;;;;;;5086124;27;20287;-63
2023/03/12 14:44:32;;;;;;;1.87;1.40;;;;;;;;;;5077037;27;20219;-64
2023/03/12 14:47:11;;;;;;;3.13;2.77;;;;;;;;;;5097495;27;20728;-63
2023/03/12 14:49:39;;;;;;;3.27;1.40;;;;;;;;;;5086625;27;20196;-63
2023/03/12 14:52:07;;;;;;;2.93;1.40;;;;;;;;;;5097379;27;20742;-64
2023/03/12 14:54:34;;;;;;;1.47;1.30;;;;;;;;;;5085166;27;20615;-64